Time,TemperatureF,DewpointF,PressureIn,WindDirection,WindDirectionDegrees,WindSpeedMPH,WindSpeedGustMPH,Humidity,HourlyPrecipIn,Conditions,Clouds,dailyrainin,SoftwareType,DateUTC
2013-01-03 00:04:00,32.0,23.7,30.11,NNE,15,1.0,1.0,71,0.00,,,0.00,Wunderground v.1.15,2013-01-03 07:04:00,
2013-01-03 00:10:00,31.4,23.4,30.11,NNE,15,0.0,0.0,72,0.00,,,0.00,Wunderground v.1.15,2013-01-03 07:10:00,
2013-01-03 00:16:00,31.2,23.9,30.11,NNE,15,0.0,2.0,74,0.00,,,0.00,Wunderground v.1.15,2013-01-03 07:16:00,
2013-01-03 00:22:00,31.6,23.9,30.11,NNE,15,1.0,1.0,73,0.00,,,0.00,Wunderground v.1.15,2013-01-03 07:22:00,
2013-01-03 00:28:00,32.0,23.7,30.11,NNE,15,1.0,2.0,71,0.00,,,0.00,Wunderground v.1.15,2013-01-03 07:28:00,
2013-01-03 00:34:00,32.5,23.8,30.10,NNE,14,1.0,3.0,70,0.00,,,0.00,Wunderground v.1.15,2013-01-03 07:34:00,
2013-01-03 00:40:00,33.3,23.9,30.10,NNE,13,2.0,2.0,68,0.00,,,0.00,Wunderground v.1.15,2013-01-03 07:40:00,
2013-01-03 00:46:00,33.4,24.0,30.10,NNE,13,1.0,2.0,68,0.00,,,0.00,Wunderground v.1.15,2013-01-03 07:46:00,
2013-01-03 00:52:00,33.3,23.5,30.10,NNE,13,0.0,0.0,67,0.00,,,0.00,Wunderground v.1.15,2013-01-03 07:52:00,
2013-01-03 00:57:00,33.7,23.5,30.10,NNE,13,0.0,1.0,66,0.00,,,0.00,Wunderground v.1.15,2013-01-03 07:57:00,
2013-01-03 01:03:00,34.2,23.3,30.10,NNE,13,1.0,2.0,64,0.00,,,0.00,Wunderground v.1.15,2013-01-03 08:03:00,
2013-01-03 01:09:00,35.1,23.8,30.10,NNE,13,1.0,2.0,63,0.00,,,0.00,Wunderground v.1.15,2013-01-03 08:09:00,
2013-01-03 01:15:00,35.2,23.5,30.10,NNE,13,0.0,2.0,62,0.00,,,0.00,Wunderground v.1.15,2013-01-03 08:15:00,
2013-01-03 01:21:00,33.6,23.1,30.10,NNE,13,0.0,2.0,65,0.00,,,0.00,Wunderground v.1.15,2013-01-03 08:21:00,
2013-01-03 01:27:00,31.6,22.9,30.10,North,11,0.0,2.0,70,0.00,,,0.00,Wunderground v.1.15,2013-01-03 08:27:00,
2013-01-03 01:32:00,30.4,23.1,30.10,North,11,1.0,2.0,74,0.00,,,0.00,Wunderground v.1.15,2013-01-03 08:32:00,
2013-01-03 01:38:00,29.6,23.0,30.10,North,11,0.0,2.0,76,0.00,,,0.00,Wunderground v.1.15,2013-01-03 08:38:00,
2013-01-03 01:43:00,29.0,22.7,30.09,North,11,0.0,2.0,77,0.00,,,0.00,Wunderground v.1.15,2013-01-03 08:43:00,
2013-01-03 01:49:00,28.6,22.6,30.10,North,11,0.0,2.0,78,0.00,,,0.00,Wunderground v.1.15,2013-01-03 08:49:00,
2013-01-03 01:55:00,28.4,22.7,30.10,North,11,0.0,2.0,79,0.00,,,0.00,Wunderground v.1.15,2013-01-03 08:55:00,
2013-01-03 02:01:00,28.7,22.7,30.10,North,11,0.0,2.0,78,0.00,,,0.00,Wunderground v.1.15,2013-01-03 09:01:00,
2013-01-03 02:07:00,29.4,22.8,30.10,NNE,33,0.0,2.0,76,0.00,,,0.00,Wunderground v.1.15,2013-01-03 09:07:00,
2013-01-03 02:13:00,32.9,24.2,30.10,NNE,24,3.0,5.0,70,0.00,,,0.00,Wunderground v.1.15,2013-01-03 09:13:00,
2013-01-03 02:19:00,34.7,23.8,30.10,NNE,25,5.0,6.0,64,0.00,,,0.00,Wunderground v.1.15,2013-01-03 09:19:00,
2013-01-03 02:25:00,35.4,23.7,30.10,NE,42,5.0,6.0,62,0.00,,,0.00,Wunderground v.1.15,2013-01-03 09:25:00,
2013-01-03 02:31:00,35.4,23.7,30.10,NNE,32,4.0,5.0,62,0.00,,,0.00,Wunderground v.1.15,2013-01-03 09:31:00,
2013-01-03 02:37:00,35.1,23.4,30.10,NE,34,4.0,7.0,62,0.00,,,0.00,Wunderground v.1.15,2013-01-03 09:37:00,
2013-01-03 02:43:00,35.0,23.3,30.10,NE,38,5.0,7.0,62,0.00,,,0.00,Wunderground v.1.15,2013-01-03 09:43:00,
2013-01-03 02:49:00,34.9,22.8,30.10,NE,52,5.0,8.0,61,0.00,,,0.00,Wunderground v.1.15,2013-01-03 09:49:00,
2013-01-03 02:55:00,35.1,23.0,30.10,NE,37,6.0,9.0,61,0.00,,,0.00,Wunderground v.1.15,2013-01-03 09:55:00,
2013-01-03 03:01:00,34.9,22.8,30.11,NNE,23,7.0,11.0,61,0.00,,,0.00,Wunderground v.1.15,2013-01-03 10:01:00,
2013-01-03 03:06:00,34.4,22.7,30.11,NE,41,6.0,11.0,62,0.00,,,0.00,Wunderground v.1.15,2013-01-03 10:06:00,
2013-01-03 03:12:00,33.7,22.4,30.11,NE,49,5.0,5.0,63,0.00,,,0.00,Wunderground v.1.15,2013-01-03 10:12:00,
2013-01-03 03:18:00,33.1,22.2,30.11,NE,34,4.0,5.0,64,0.00,,,0.00,Wunderground v.1.15,2013-01-03 10:18:00,
2013-01-03 03:24:00,33.1,22.6,30.11,NE,34,4.0,5.0,65,0.00,,,0.00,Wunderground v.1.15,2013-01-03 10:24:00,
2013-01-03 03:29:00,33.5,23.0,30.11,NE,47,5.0,6.0,65,0.00,,,0.00,Wunderground v.1.15,2013-01-03 10:29:00,
2013-01-03 03:34:00,33.7,22.8,30.11,NNE,26,4.0,5.0,64,0.00,,,0.00,Wunderground v.1.15,2013-01-03 10:34:00,
2013-01-03 03:40:00,33.7,22.4,30.11,NNE,32,4.0,6.0,63,0.00,,,0.00,Wunderground v.1.15,2013-01-03 10:40:00,
2013-01-03 03:46:00,33.6,22.3,30.11,NE,49,4.0,6.0,63,0.00,,,0.00,Wunderground v.1.15,2013-01-03 10:46:00,
2013-01-03 03:52:00,33.4,22.1,30.11,NNE,25,4.0,4.0,63,0.00,,,0.00,Wunderground v.1.15,2013-01-03 10:52:00,
2013-01-03 03:58:00,33.3,21.7,30.11,NE,44,4.0,5.0,62,0.00,,,0.00,Wunderground v.1.15,2013-01-03 10:58:00,
2013-01-03 04:04:00,33.2,22.0,30.11,NE,40,3.0,5.0,63,0.00,,,0.00,Wunderground v.1.15,2013-01-03 11:04:00,
2013-01-03 04:10:00,33.3,21.7,30.10,NE,36,3.0,4.0,62,0.00,,,0.00,Wunderground v.1.15,2013-01-03 11:10:00,
2013-01-03 04:16:00,33.3,21.7,30.10,NE,53,3.0,4.0,62,0.00,,,0.00,Wunderground v.1.15,2013-01-03 11:16:00,
2013-01-03 04:22:00,33.2,21.6,30.10,NE,55,2.0,3.0,62,0.00,,,0.00,Wunderground v.1.15,2013-01-03 11:22:00,
2013-01-03 04:28:00,32.9,21.3,30.10,ENE,65,1.0,3.0,62,0.00,,,0.00,Wunderground v.1.15,2013-01-03 11:28:00,
2013-01-03 04:33:00,32.8,22.0,30.10,ENE,65,1.0,2.0,64,0.00,,,0.00,Wunderground v.1.15,2013-01-03 11:33:00,
2013-01-03 04:39:00,31.7,22.0,30.09,South,184,1.0,2.0,67,0.00,,,0.00,Wunderground v.1.15,2013-01-03 11:39:00,
2013-01-03 04:45:00,31.3,22.0,30.09,SSE,161,1.0,2.0,68,0.00,,,0.00,Wunderground v.1.15,2013-01-03 11:45:00,
2013-01-03 04:51:00,30.4,22.4,30.09,SW,219,1.0,2.0,72,0.00,,,0.00,Wunderground v.1.15,2013-01-03 11:51:00,
2013-01-03 04:57:00,29.6,22.3,30.09,SW,219,0.0,2.0,74,0.00,,,0.00,Wunderground v.1.15,2013-01-03 11:57:00,
2013-01-03 05:03:00,28.6,22.0,30.10,SW,222,1.0,3.0,76,0.00,,,0.00,Wunderground v.1.15,2013-01-03 12:03:00,
2013-01-03 05:09:00,28.2,21.9,30.09,NW,318,2.0,3.0,77,0.00,,,0.00,Wunderground v.1.15,2013-01-03 12:09:00,
2013-01-03 05:15:00,27.9,21.6,30.09,NW,318,1.0,2.0,77,0.00,,,0.00,Wunderground v.1.15,2013-01-03 12:15:00,
2013-01-03 05:20:00,27.7,21.7,30.09,NW,318,0.0,2.0,78,0.00,,,0.00,Wunderground v.1.15,2013-01-03 12:20:00,
2013-01-03 05:26:00,27.3,21.3,30.09,NW,318,0.0,2.0,78,0.00,,,0.00,Wunderground v.1.15,2013-01-03 12:26:00,
2013-01-03 05:32:00,27.4,21.1,30.10,NNW,329,0.0,2.0,77,0.00,,,0.00,Wunderground v.1.15,2013-01-03 12:32:00,
2013-01-03 05:37:00,28.5,21.3,30.10,NE,36,0.0,2.0,74,0.00,,,0.00,Wunderground v.1.15,2013-01-03 12:37:00,
2013-01-03 05:43:00,29.2,21.0,30.10,NE,36,0.0,2.0,71,0.00,,,0.00,Wunderground v.1.15,2013-01-03 12:43:00,
2013-01-03 05:49:00,29.8,20.9,30.10,East,82,1.0,2.0,69,0.00,,,0.00,Wunderground v.1.15,2013-01-03 12:49:00,
2013-01-03 05:55:00,29.7,20.8,30.10,East,86,1.0,2.0,69,0.00,,,0.00,Wunderground v.1.15,2013-01-03 12:55:00,
2013-01-03 06:00:00,28.9,20.7,30.10,East,86,0.0,2.0,71,0.00,,,0.00,Wunderground v.1.15,2013-01-03 13:00:00,
2013-01-03 06:06:00,28.4,20.5,30.10,East,89,0.0,2.0,72,0.00,,,0.00,Wunderground v.1.15,2013-01-03 13:06:00,
2013-01-03 06:12:00,28.2,20.0,30.11,ENE,76,1.0,2.0,71,0.00,,,0.00,Wunderground v.1.15,2013-01-03 13:12:00,
2013-01-03 06:18:00,28.3,19.8,30.11,NE,47,1.0,5.0,70,0.00,,,0.00,Wunderground v.1.15,2013-01-03 13:18:00,
2013-01-03 06:24:00,29.0,19.8,30.11,NE,42,3.0,5.0,68,0.00,,,0.00,Wunderground v.1.15,2013-01-03 13:24:00,
2013-01-03 06:30:00,29.9,19.9,30.11,NE,41,5.0,6.0,66,0.00,,,0.00,Wunderground v.1.15,2013-01-03 13:30:00,
2013-01-03 06:36:00,30.2,19.5,30.11,NE,42,4.0,6.0,64,0.00,,,0.00,Wunderground v.1.15,2013-01-03 13:36:00,
2013-01-03 06:42:00,30.3,19.6,30.11,ENE,59,3.0,4.0,64,0.00,,,0.00,Wunderground v.1.15,2013-01-03 13:42:00,
2013-01-03 06:48:00,30.2,19.1,30.11,NE,42,3.0,7.0,63,0.00,,,0.00,Wunderground v.1.15,2013-01-03 13:48:00,
2013-01-03 06:54:00,30.6,19.1,30.11,NE,53,4.0,5.0,62,0.00,,,0.00,Wunderground v.1.15,2013-01-03 13:54:00,
2013-01-03 06:59:00,30.6,19.5,30.11,NNE,29,4.0,5.0,63,0.00,,,0.00,Wunderground v.1.15,2013-01-03 13:59:00,
2013-01-03 07:05:00,31.1,19.2,30.11,NE,48,4.0,7.0,61,0.00,,,0.00,Wunderground v.1.15,2013-01-03 14:05:00,
2013-01-03 07:11:00,30.9,19.0,30.11,NE,40,4.0,4.0,61,0.00,,,0.00,Wunderground v.1.15,2013-01-03 14:11:00,
2013-01-03 07:17:00,30.9,19.4,30.12,NE,49,3.0,4.0,62,0.00,,,0.00,Wunderground v.1.15,2013-01-03 14:17:00,
2013-01-03 07:22:00,30.8,18.9,30.12,NE,51,3.0,4.0,61,0.00,,,0.00,Wunderground v.1.15,2013-01-03 14:22:00,
2013-01-03 07:28:00,30.6,19.1,30.12,NE,45,3.0,4.0,62,0.00,,,0.00,Wunderground v.1.15,2013-01-03 14:28:00,
2013-01-03 07:34:00,30.6,19.1,30.13,NE,46,3.0,4.0,62,0.00,,,0.00,Wunderground v.1.15,2013-01-03 14:34:00,
2013-01-03 07:40:00,30.5,19.4,30.13,NE,45,3.0,3.0,63,0.00,,,0.00,Wunderground v.1.15,2013-01-03 14:40:00,
2013-01-03 07:46:00,31.1,20.0,30.13,NE,40,4.0,7.0,63,0.00,,,0.00,Wunderground v.1.15,2013-01-03 14:46:00,
2013-01-03 07:51:00,32.4,20.0,30.14,NE,54,6.0,7.0,60,0.00,,,0.00,Wunderground v.1.15,2013-01-03 14:51:00,
2013-01-03 07:56:00,33.7,20.9,30.14,NNE,13,7.0,11.0,59,0.00,,,0.00,Wunderground v.1.15,2013-01-03 14:56:00,
2013-01-03 08:02:00,34.7,20.2,30.14,NE,49,8.0,9.0,55,0.00,,,0.00,Wunderground v.1.15,2013-01-03 15:02:00,
2013-01-03 08:08:00,34.7,19.7,30.14,NNE,22,9.0,14.0,54,0.00,,,0.00,Wunderground v.1.15,2013-01-03 15:08:00,
2013-01-03 08:14:00,34.2,19.7,30.15,NE,40,8.0,9.0,55,0.00,,,0.00,Wunderground v.1.15,2013-01-03 15:14:00,
2013-01-03 08:20:00,33.8,19.3,30.15,NE,35,7.0,7.0,55,0.00,,,0.00,Wunderground v.1.15,2013-01-03 15:20:00,
2013-01-03 08:26:00,33.5,18.6,30.16,NE,45,7.0,9.0,54,0.00,,,0.00,Wunderground v.1.15,2013-01-03 15:26:00,
2013-01-03 08:32:00,33.7,19.2,30.16,NNE,24,7.0,9.0,55,0.00,,,0.00,Wunderground v.1.15,2013-01-03 15:32:00,
2013-01-03 08:38:00,34.1,19.6,30.17,NE,47,7.0,12.0,55,0.00,,,0.00,Wunderground v.1.15,2013-01-03 15:38:00,
2013-01-03 08:44:00,34.5,19.5,30.17,NE,35,8.0,10.0,54,0.00,,,0.00,Wunderground v.1.15,2013-01-03 15:44:00,
2013-01-03 08:50:00,35.1,20.1,30.17,NNE,22,8.0,8.0,54,0.00,,,0.00,Wunderground v.1.15,2013-01-03 15:50:00,
2013-01-03 08:55:00,35.7,19.8,30.17,NNE,23,7.0,9.0,52,0.00,,,0.00,Wunderground v.1.15,2013-01-03 15:55:00,
2013-01-03 09:00:00,36.1,19.2,30.17,NNE,28,8.0,8.0,50,0.00,,,0.00,Wunderground v.1.15,2013-01-03 16:00:00,
2013-01-03 09:06:00,36.2,19.3,30.18,NE,48,8.0,10.0,50,0.00,,,0.00,Wunderground v.1.15,2013-01-03 16:06:00,
2013-01-03 09:12:00,36.7,20.7,30.18,NE,37,7.0,7.0,52,0.00,,,0.00,Wunderground v.1.15,2013-01-03 16:12:00,
2013-01-03 09:18:00,37.0,20.1,30.19,East,81,6.0,8.0,50,0.00,,,0.00,Wunderground v.1.15,2013-01-03 16:18:00,
2013-01-03 09:24:00,37.3,19.9,30.19,NE,51,6.0,8.0,49,0.00,,,0.00,Wunderground v.1.15,2013-01-03 16:24:00,
2013-01-03 09:30:00,37.4,20.0,30.19,East,80,6.0,7.0,49,0.00,,,0.00,Wunderground v.1.15,2013-01-03 16:30:00,
2013-01-03 09:36:00,37.6,19.7,30.20,ENE,64,6.0,7.0,48,0.00,,,0.00,Wunderground v.1.15,2013-01-03 16:36:00,
2013-01-03 09:42:00,37.9,19.9,30.20,ENE,66,6.0,7.0,48,0.00,,,0.00,Wunderground v.1.15,2013-01-03 16:42:00,
2013-01-03 09:48:00,38.2,20.2,30.19,ENE,63,6.0,8.0,48,0.00,,,0.00,Wunderground v.1.15,2013-01-03 16:48:00,
2013-01-03 09:54:00,38.7,20.7,30.19,ENE,73,5.0,5.0,48,0.00,,,0.00,Wunderground v.1.15,2013-01-03 16:54:00,
2013-01-03 10:00:00,38.8,20.3,30.19,NNE,26,5.0,5.0,47,0.00,,,0.00,Wunderground v.1.15,2013-01-03 17:00:00,
2013-01-03 10:05:00,38.2,20.7,30.19,ENE,67,5.0,5.0,49,0.00,,,0.00,Wunderground v.1.15,2013-01-03 17:05:00,
2013-01-03 10:11:00,37.7,20.7,30.19,NE,49,5.0,5.0,50,0.00,,,0.00,Wunderground v.1.15,2013-01-03 17:11:00,
2013-01-03 10:16:00,37.7,21.2,30.19,ENE,68,4.0,5.0,51,0.00,,,0.00,Wunderground v.1.15,2013-01-03 17:16:00,
2013-01-03 10:22:00,38.7,21.6,30.18,ESE,109,3.0,5.0,50,0.00,,,0.00,Wunderground v.1.15,2013-01-03 17:22:00,
2013-01-03 10:28:00,39.8,22.2,30.18,NE,50,4.0,6.0,49,0.00,,,0.00,Wunderground v.1.15,2013-01-03 17:28:00,
2013-01-03 10:34:00,40.6,22.9,30.18,ESE,103,5.0,8.0,49,0.00,,,0.00,Wunderground v.1.15,2013-01-03 17:34:00,
2013-01-03 10:40:00,40.8,23.6,30.18,ENE,60,5.0,5.0,50,0.00,,,0.00,Wunderground v.1.15,2013-01-03 17:40:00,
2013-01-03 10:46:00,40.8,23.1,30.18,ENE,75,5.0,9.0,49,0.00,,,0.00,Wunderground v.1.15,2013-01-03 17:46:00,
2013-01-03 10:52:00,40.8,23.1,30.18,NE,51,6.0,6.0,49,0.00,,,0.00,Wunderground v.1.15,2013-01-03 17:52:00,
2013-01-03 10:57:00,41.2,23.9,30.18,ENE,62,5.0,10.0,50,0.00,,,0.00,Wunderground v.1.15,2013-01-03 17:57:00,
2013-01-03 11:03:00,41.4,23.2,30.18,East,79,5.0,8.0,48,0.00,,,0.00,Wunderground v.1.15,2013-01-03 18:03:00,
2013-01-03 11:09:00,41.5,23.7,30.17,East,79,6.0,8.0,49,0.00,,,0.00,Wunderground v.1.15,2013-01-03 18:09:00,
2013-01-03 11:15:00,41.5,22.7,30.17,ENE,76,7.0,10.0,47,0.00,,,0.00,Wunderground v.1.15,2013-01-03 18:15:00,
2013-01-03 11:21:00,41.9,24.1,30.17,NE,42,7.0,9.0,49,0.00,,,0.00,Wunderground v.1.15,2013-01-03 18:21:00,
2013-01-03 11:27:00,42.3,24.0,30.17,ENE,74,6.0,9.0,48,0.00,,,0.00,Wunderground v.1.15,2013-01-03 18:27:00,
2013-01-03 11:33:00,42.4,23.6,30.16,ENE,59,7.0,8.0,47,0.00,,,0.00,Wunderground v.1.15,2013-01-03 18:33:00,
2013-01-03 11:39:00,42.6,23.8,30.16,ENE,67,7.0,8.0,47,0.00,,,0.00,Wunderground v.1.15,2013-01-03 18:39:00,
2013-01-03 11:45:00,43.2,24.3,30.16,ENE,64,6.0,10.0,47,0.00,,,0.00,Wunderground v.1.15,2013-01-03 18:45:00,
2013-01-03 11:50:00,43.8,24.9,30.16,ENE,57,6.0,6.0,47,0.00,,,0.00,Wunderground v.1.15,2013-01-03 18:50:00,
2013-01-03 11:56:00,44.0,24.5,30.16,ENE,57,5.0,10.0,46,0.00,,,0.00,Wunderground v.1.15,2013-01-03 18:56:00,
2013-01-03 12:01:00,44.2,25.2,30.15,NE,51,6.0,6.0,47,0.00,,,0.00,Wunderground v.1.15,2013-01-03 19:01:00,
2013-01-03 12:07:00,44.5,25.0,30.15,ENE,78,6.0,10.0,46,0.00,,,0.00,Wunderground v.1.15,2013-01-03 19:07:00,
2013-01-03 12:13:00,44.7,25.7,30.15,East,94,6.0,8.0,47,0.00,,,0.00,Wunderground v.1.15,2013-01-03 19:13:00,
2013-01-03 12:18:00,45.2,25.6,30.15,ENE,74,7.0,10.0,46,0.00,,,0.00,Wunderground v.1.15,2013-01-03 19:18:00,
2013-01-03 12:59:00,45.2,27.2,30.13,East,101,7.0,10.0,49,0.00,,,0.00,Wunderground v.1.15,2013-01-03 19:59:00,
2013-01-03 13:05:00,45.8,27.7,30.13,East,98,7.0,11.0,49,0.00,,,0.00,Wunderground v.1.15,2013-01-03 20:05:00,
2013-01-03 13:11:00,46.1,28.0,30.13,ESE,113,7.0,7.0,49,0.00,,,0.00,Wunderground v.1.15,2013-01-03 20:11:00,
2013-01-03 13:17:00,46.5,28.3,30.13,ESE,105,6.0,10.0,49,0.00,,,0.00,Wunderground v.1.15,2013-01-03 20:17:00,
2013-01-03 13:22:00,46.3,27.7,30.12,ENE,57,6.0,8.0,48,0.00,,,0.00,Wunderground v.1.15,2013-01-03 20:22:00,
2013-01-03 13:28:00,46.2,28.1,30.12,ESE,122,6.0,9.0,49,0.00,,,0.00,Wunderground v.1.15,2013-01-03 20:28:00,
2013-01-03 13:34:00,47.1,28.9,30.12,ESE,121,6.0,10.0,49,0.00,,,0.00,Wunderground v.1.15,2013-01-03 20:34:00,
2013-01-03 13:40:00,47.1,27.9,30.12,East,85,7.0,7.0,47,0.00,,,0.00,Wunderground v.1.15,2013-01-03 20:40:00,
2013-01-03 13:46:00,46.1,28.0,30.12,ESE,115,6.0,9.0,49,0.00,,,0.00,Wunderground v.1.15,2013-01-03 20:46:00,
2013-01-03 13:52:00,45.8,27.7,30.13,ESE,120,5.0,8.0,49,0.00,,,0.00,Wunderground v.1.15,2013-01-03 20:52:00,
2013-01-03 13:58:00,45.5,27.9,30.13,NE,38,4.0,8.0,50,0.00,,,0.00,Wunderground v.1.15,2013-01-03 20:58:00,
2013-01-03 14:04:00,46.3,28.2,30.12,ESE,116,4.0,8.0,49,0.00,,,0.00,Wunderground v.1.15,2013-01-03 21:04:00,
2013-01-03 14:10:00,46.9,28.2,30.12,ENE,63,5.0,7.0,48,0.00,,,0.00,Wunderground v.1.15,2013-01-03 21:10:00,
2013-01-03 14:16:00,46.5,27.8,30.12,ENE,71,4.0,7.0,48,0.00,,,0.00,Wunderground v.1.15,2013-01-03 21:16:00,
2013-01-03 14:21:00,46.5,27.8,30.12,SE,131,4.0,6.0,48,0.00,,,0.00,Wunderground v.1.15,2013-01-03 21:21:00,
2013-01-03 14:27:00,46.3,28.2,30.12,SE,136,5.0,7.0,49,0.00,,,0.00,Wunderground v.1.15,2013-01-03 21:27:00,
2013-01-03 14:33:00,46.8,29.1,30.12,ESE,103,5.0,8.0,50,0.00,,,0.00,Wunderground v.1.15,2013-01-03 21:33:00,
2013-01-03 14:39:00,47.1,28.9,30.12,ENE,57,5.0,8.0,49,0.00,,,0.00,Wunderground v.1.15,2013-01-03 21:39:00,
2013-01-03 14:45:00,46.7,29.5,30.13,East,99,6.0,8.0,51,0.00,,,0.00,Wunderground v.1.15,2013-01-03 21:45:00,
2013-01-03 14:50:00,46.5,29.3,30.13,ESE,108,7.0,7.0,51,0.00,,,0.00,Wunderground v.1.15,2013-01-03 21:50:00,
2013-01-03 14:56:00,46.8,30.1,30.12,ENE,70,6.0,8.0,52,0.00,,,0.00,Wunderground v.1.15,2013-01-03 21:56:00,
2013-01-03 15:02:00,47.0,29.8,30.12,East,82,6.0,9.0,51,0.00,,,0.00,Wunderground v.1.15,2013-01-03 22:02:00,
2013-01-03 15:08:00,46.9,29.7,30.13,East,100,6.0,9.0,51,0.00,,,0.00,Wunderground v.1.15,2013-01-03 22:08:00,
2013-01-03 15:14:00,46.8,29.6,30.13,ENE,61,6.0,11.0,51,0.00,,,0.00,Wunderground v.1.15,2013-01-03 22:14:00,
2013-01-03 15:20:00,46.5,30.3,30.13,NE,51,6.0,9.0,53,0.00,,,0.00,Wunderground v.1.15,2013-01-03 22:20:00,
2013-01-03 15:25:00,46.7,30.5,30.13,ESE,118,7.0,10.0,53,0.00,,,0.00,Wunderground v.1.15,2013-01-03 22:25:00,
2013-01-03 15:31:00,46.5,30.3,30.13,ENE,63,7.0,7.0,53,0.00,,,0.00,Wunderground v.1.15,2013-01-03 22:31:00,
2013-01-03 15:37:00,46.6,30.8,30.13,ENE,63,6.0,9.0,54,0.00,,,0.00,Wunderground v.1.15,2013-01-03 22:37:00,
2013-01-03 15:43:00,46.4,30.6,30.13,East,92,7.0,9.0,54,0.00,,,0.00,Wunderground v.1.15,2013-01-03 22:43:00,
2013-01-03 15:49:00,46.2,30.9,30.13,East,91,7.0,10.0,55,0.00,,,0.00,Wunderground v.1.15,2013-01-03 22:49:00,
2013-01-03 15:55:00,46.4,31.1,30.14,SE,124,6.0,8.0,55,0.00,,,0.00,Wunderground v.1.15,2013-01-03 22:55:00,
2013-01-03 16:01:00,46.2,30.9,30.14,ESE,115,6.0,9.0,55,0.00,,,0.00,Wunderground v.1.15,2013-01-03 23:01:00,
2013-01-03 16:06:00,46.0,31.2,30.14,ESE,109,7.0,10.0,56,0.00,,,0.00,Wunderground v.1.15,2013-01-03 23:06:00,
2013-01-03 16:12:00,45.7,31.3,30.14,ESE,113,8.0,11.0,57,0.00,,,0.00,Wunderground v.1.15,2013-01-03 23:12:00,
2013-01-03 16:18:00,45.6,31.2,30.14,East,98,8.0,11.0,57,0.00,,,0.00,Wunderground v.1.15,2013-01-03 23:18:00,
2013-01-03 16:24:00,45.5,31.6,30.15,ESE,113,8.0,9.0,58,0.00,,,0.00,Wunderground v.1.15,2013-01-03 23:24:00,
2013-01-03 16:30:00,45.0,31.5,30.15,ESE,119,8.0,8.0,59,0.00,,,0.00,Wunderground v.1.15,2013-01-03 23:30:00,
2013-01-03 16:36:00,44.1,32.3,30.15,SE,126,8.0,11.0,63,0.00,,,0.00,Wunderground v.1.15,2013-01-03 23:36:00,
2013-01-03 16:42:00,43.4,32.4,30.15,SE,128,8.0,8.0,65,0.00,,,0.00,Wunderground v.1.15,2013-01-03 23:42:00,
2013-01-03 16:47:00,42.5,32.3,30.15,SE,137,7.0,10.0,67,0.00,,,0.00,Wunderground v.1.15,2013-01-03 23:47:00,
2013-01-03 16:53:00,41.8,32.4,30.16,ESE,121,6.0,7.0,69,0.00,,,0.00,Wunderground v.1.15,2013-01-03 23:53:00,
2013-01-03 16:59:00,41.1,32.1,30.16,ESE,123,6.0,9.0,70,0.00,,,0.00,Wunderground v.1.15,2013-01-03 23:59:00,
2013-01-03 17:05:00,40.5,31.8,30.16,SE,128,5.0,7.0,71,0.00,,,0.00,Wunderground v.1.15,2013-01-04 00:05:00,
2013-01-03 17:11:00,40.0,32.0,30.17,SE,128,5.0,5.0,73,0.00,,,0.00,Wunderground v.1.15,2013-01-04 00:11:00,
2013-01-03 17:17:00,39.5,31.9,30.17,SE,126,4.0,5.0,74,0.00,,,0.00,Wunderground v.1.15,2013-01-04 00:17:00,
2013-01-03 17:23:00,38.8,31.9,30.18,SE,131,4.0,7.0,76,0.00,,,0.00,Wunderground v.1.15,2013-01-04 00:23:00,
2013-01-03 17:29:00,38.3,31.7,30.18,ESE,121,4.0,7.0,77,0.00,,,0.00,Wunderground v.1.15,2013-01-04 00:29:00,
2013-01-03 17:34:00,37.9,31.7,30.18,ESE,117,3.0,4.0,78,0.00,,,0.00,Wunderground v.1.15,2013-01-04 00:34:00,
2013-01-03 17:40:00,37.5,31.6,30.19,ESE,118,2.0,2.0,79,0.00,,,0.00,Wunderground v.1.15,2013-01-04 00:40:00,
2013-01-03 17:46:00,37.1,31.2,30.19,ENE,57,1.0,2.0,79,0.00,,,0.00,Wunderground v.1.15,2013-01-04 00:46:00,
2013-01-03 17:52:00,36.8,31.2,30.19,ENE,66,2.0,3.0,80,0.00,,,0.00,Wunderground v.1.15,2013-01-04 00:52:00,
2013-01-03 17:58:00,36.4,30.8,30.20,ENE,68,1.0,3.0,80,0.00,,,0.00,Wunderground v.1.15,2013-01-04 00:58:00,
2013-01-03 18:04:00,36.1,30.8,30.20,ENE,69,1.0,2.0,81,0.00,,,0.00,Wunderground v.1.15,2013-01-04 01:04:00,
2013-01-03 18:09:00,35.9,30.9,30.20,NE,53,1.0,3.0,82,0.00,,,0.00,Wunderground v.1.15,2013-01-04 01:09:00,
2013-01-03 18:15:00,35.5,30.8,30.21,NE,51,2.0,4.0,83,0.00,,,0.00,Wunderground v.1.15,2013-01-04 01:15:00,
2013-01-03 18:21:00,35.5,30.8,30.21,NE,50,2.0,2.0,83,0.00,,,0.00,Wunderground v.1.15,2013-01-04 01:21:00,
2013-01-03 18:27:00,35.5,31.1,30.21,NE,51,1.0,2.0,84,0.00,,,0.00,Wunderground v.1.15,2013-01-04 01:27:00,
2013-01-03 18:33:00,35.5,31.1,30.21,NE,51,1.0,2.0,84,0.00,,,0.00,Wunderground v.1.15,2013-01-04 01:33:00,
2013-01-03 18:39:00,35.3,30.9,30.22,NE,49,1.0,3.0,84,0.00,,,0.00,Wunderground v.1.15,2013-01-04 01:39:00,
2013-01-03 18:45:00,35.2,30.9,30.22,NE,49,2.0,4.0,84,0.00,,,0.00,Wunderground v.1.15,2013-01-04 01:45:00,
2013-01-03 18:50:00,35.1,31.0,30.22,NE,46,2.0,3.0,85,0.00,,,0.00,Wunderground v.1.15,2013-01-04 01:50:00,
2013-01-03 18:56:00,35.1,31.0,30.23,NE,44,3.0,5.0,85,0.00,,,0.00,Wunderground v.1.15,2013-01-04 01:56:00,
2013-01-03 19:02:00,35.0,30.4,30.23,NNE,29,3.0,5.0,83,0.00,,,0.00,Wunderground v.1.15,2013-01-04 02:02:00,
2013-01-03 19:08:00,34.8,30.2,30.23,NNE,28,4.0,7.0,83,0.00,,,0.00,Wunderground v.1.15,2013-01-04 02:08:00,
2013-01-03 19:14:00,34.7,30.1,30.23,NE,41,4.0,4.0,83,0.00,,,0.00,Wunderground v.1.15,2013-01-04 02:14:00,
2013-01-03 19:20:00,34.4,29.8,30.23,NE,37,4.0,4.0,83,0.00,,,0.00,Wunderground v.1.15,2013-01-04 02:20:00,
2013-01-03 19:26:00,34.1,29.5,30.23,NE,49,3.0,4.0,83,0.00,,,0.00,Wunderground v.1.15,2013-01-04 02:26:00,
2013-01-03 19:32:00,33.9,29.0,30.23,NE,46,2.0,3.0,82,0.00,,,0.00,Wunderground v.1.15,2013-01-04 02:32:00,
2013-01-03 19:38:00,33.7,28.8,30.23,NE,55,2.0,3.0,82,0.00,,,0.00,Wunderground v.1.15,2013-01-04 02:38:00,
2013-01-03 19:43:00,33.4,28.5,30.23,NE,55,1.0,2.0,82,0.00,,,0.00,Wunderground v.1.15,2013-01-04 02:43:00,
2013-01-03 19:49:00,33.1,28.5,30.23,NE,55,1.0,2.0,83,0.00,,,0.00,Wunderground v.1.15,2013-01-04 02:49:00,
2013-01-03 19:55:00,33.0,28.4,30.24,ENE,59,1.0,3.0,83,0.00,,,0.00,Wunderground v.1.15,2013-01-04 02:55:00,
2013-01-03 20:01:00,32.9,28.3,30.24,ENE,57,2.0,2.0,83,0.00,,,0.00,Wunderground v.1.15,2013-01-04 03:01:00,
2013-01-03 20:07:00,32.7,28.1,30.24,ENE,61,1.0,2.0,83,0.00,,,0.00,Wunderground v.1.15,2013-01-04 03:07:00,
2013-01-03 20:13:00,32.5,28.2,30.24,NE,52,1.0,3.0,84,0.00,,,0.00,Wunderground v.1.15,2013-01-04 03:13:00,
2013-01-03 20:19:00,32.3,28.3,30.24,NE,51,2.0,3.0,85,0.00,,,0.00,Wunderground v.1.15,2013-01-04 03:19:00,
2013-01-03 20:25:00,32.4,28.4,30.25,NE,51,1.0,2.0,85,0.00,,,0.00,Wunderground v.1.15,2013-01-04 03:25:00,
2013-01-03 20:31:00,32.5,28.5,30.25,ENE,72,1.0,3.0,85,0.00,,,0.00,Wunderground v.1.15,2013-01-04 03:31:00,
2013-01-03 20:36:00,32.6,28.9,30.25,ENE,69,2.0,3.0,86,0.00,,,0.00,Wunderground v.1.15,2013-01-04 03:36:00,
2013-01-03 20:42:00,32.9,29.2,30.25,ENE,71,2.0,2.0,86,0.00,,,0.00,Wunderground v.1.15,2013-01-04 03:42:00,
2013-01-03 20:48:00,33.1,29.4,30.25,East,92,1.0,3.0,86,0.00,,,0.00,Wunderground v.1.15,2013-01-04 03:48:00,
2013-01-03 20:54:00,33.5,30.0,30.25,East,97,2.0,2.0,87,0.00,,,0.00,Wunderground v.1.15,2013-01-04 03:54:00,
2013-01-03 21:00:00,33.9,30.2,30.26,East,94,2.0,2.0,86,0.00,,,0.00,Wunderground v.1.15,2013-01-04 04:00:00,
2013-01-03 21:06:00,34.0,30.0,30.26,ENE,74,2.0,3.0,85,0.00,,,0.00,Wunderground v.1.15,2013-01-04 04:06:00,
2013-01-03 21:12:00,34.0,30.0,30.26,ENE,74,2.0,2.0,85,0.00,,,0.00,Wunderground v.1.15,2013-01-04 04:12:00,
2013-01-03 21:18:00,34.1,30.1,30.26,ENE,67,2.0,3.0,85,0.00,,,0.00,Wunderground v.1.15,2013-01-04 04:18:00,
2013-01-03 21:24:00,34.1,30.4,30.26,East,80,2.0,2.0,86,0.00,,,0.00,Wunderground v.1.15,2013-01-04 04:24:00,
2013-01-03 21:30:00,34.1,30.4,30.26,ENE,66,2.0,2.0,86,0.00,,,0.00,Wunderground v.1.15,2013-01-04 04:30:00,
2013-01-03 21:35:00,34.1,30.4,30.26,ENE,65,2.0,3.0,86,0.00,,,0.00,Wunderground v.1.15,2013-01-04 04:35:00,
2013-01-03 21:40:00,34.2,30.4,30.26,ENE,67,2.0,2.0,86,0.00,,,0.00,Wunderground v.1.15,2013-01-04 04:40:00,
2013-01-03 21:46:00,34.2,30.2,30.26,ENE,66,2.0,3.0,85,0.00,,,0.00,Wunderground v.1.15,2013-01-04 04:46:00,
2013-01-03 21:52:00,34.2,30.2,30.27,East,90,2.0,2.0,85,0.00,,,0.00,Wunderground v.1.15,2013-01-04 04:52:00,
2013-01-03 21:58:00,34.2,30.2,30.27,ESE,102,2.0,4.0,85,0.00,,,0.00,Wunderground v.1.15,2013-01-04 04:58:00,
2013-01-03 22:00:00,34.2,30.2,30.27,ESE,109,2.0,3.0,85,0.00,,,0.00,Wunderground v.1.15,2013-01-04 05:00:00,
2013-01-03 22:01:00,34.2,30.2,30.27,ESE,105,2.0,3.0,85,0.00,,,0.00,Wunderground v.1.15,2013-01-04 05:01:00,
2013-01-03 22:02:00,34.2,30.2,30.27,ESE,105,2.0,3.0,85,0.00,,,0.00,Wunderground v.1.15,2013-01-04 05:02:00,
2013-01-03 22:05:00,34.2,30.2,30.27,ESE,105,2.0,3.0,85,0.00,,,0.00,Wunderground v.1.15,2013-01-04 05:05:00,
2013-01-03 22:11:00,34.2,30.2,30.27,ENE,76,2.0,2.0,85,0.00,,,0.00,Wunderground v.1.15,2013-01-04 05:11:00,
2013-01-03 22:17:00,34.1,30.1,30.28,ENE,76,1.0,2.0,85,0.00,,,0.00,Wunderground v.1.15,2013-01-04 05:17:00,
2013-01-03 22:23:00,34.0,30.0,30.27,ENE,69,1.0,3.0,85,0.00,,,0.00,Wunderground v.1.15,2013-01-04 05:23:00,
2013-01-03 22:29:00,33.9,29.9,30.28,ENE,71,2.0,3.0,85,0.00,,,0.00,Wunderground v.1.15,2013-01-04 05:29:00,
2013-01-03 22:34:00,33.9,29.9,30.28,ENE,68,2.0,3.0,85,0.00,,,0.00,Wunderground v.1.15,2013-01-04 05:34:00,
2013-01-03 22:40:00,33.9,29.9,30.28,ENE,77,2.0,2.0,85,0.00,,,0.00,Wunderground v.1.15,2013-01-04 05:40:00,
2013-01-03 22:46:00,33.9,29.6,30.28,ENE,57,2.0,4.0,84,0.00,,,0.00,Wunderground v.1.15,2013-01-04 05:46:00,
2013-01-03 22:52:00,33.6,28.4,30.28,NE,49,3.0,5.0,81,0.00,,,0.00,Wunderground v.1.15,2013-01-04 05:52:00,
2013-01-03 22:58:00,33.3,28.1,30.28,NE,40,4.0,7.0,81,0.00,,,0.00,Wunderground v.1.15,2013-01-04 05:58:00,
2013-01-03 23:03:00,33.2,28.0,30.28,NE,45,4.0,5.0,81,0.00,,,0.00,Wunderground v.1.15,2013-01-04 06:03:00,
2013-01-03 23:09:00,33.1,28.2,30.28,NE,34,4.0,5.0,82,0.00,,,0.00,Wunderground v.1.15,2013-01-04 06:09:00,
2013-01-03 23:15:00,33.0,28.1,30.28,NE,46,4.0,5.0,82,0.00,,,0.00,Wunderground v.1.15,2013-01-04 06:15:00,
2013-01-03 23:20:00,33.0,28.1,30.28,ENE,77,3.0,3.0,82,0.00,,,0.00,Wunderground v.1.15,2013-01-04 06:20:00,
2013-01-03 23:26:00,32.9,28.0,30.28,NE,40,4.0,6.0,82,0.00,,,0.00,Wunderground v.1.15,2013-01-04 06:26:00,
2013-01-03 23:32:00,32.8,27.9,30.28,NE,42,4.0,5.0,82,0.00,,,0.00,Wunderground v.1.15,2013-01-04 06:32:00,
2013-01-03 23:38:00,32.7,27.8,30.28,NE,42,4.0,7.0,82,0.00,,,0.00,Wunderground v.1.15,2013-01-04 06:38:00,
2013-01-03 23:44:00,32.6,27.7,30.28,NE,34,4.0,4.0,82,0.00,,,0.00,Wunderground v.1.15,2013-01-04 06:44:00,
2013-01-03 23:50:00,32.4,27.5,30.28,NE,49,3.0,3.0,82,0.00,,,0.00,Wunderground v.1.15,2013-01-04 06:50:00,
2013-01-03 23:56:00,32.2,27.3,30.28,NNE,30,4.0,6.0,82,0.00,,,0.00,Wunderground v.1.15,2013-01-04 06:56:00,